createdAt,value
2019-01-05T00:00:47.382Z,34.38
2019-01-05T00:06:12.906Z,38.25
2019-01-05T00:11:37.334Z,34.60
2019-01-05T00:17:02.342Z,33.78
2019-01-05T00:22:33.977Z,28.42
2019-01-05T00:27:58.939Z,36.68
2019-01-05T00:33:32.812Z,31.80
2019-01-05T00:38:54.624Z,29.57
2019-01-05T00:44:13.410Z,35.98
2019-01-05T00:49:36.368Z,42.25
2019-01-05T00:55:00.442Z,43.17
2019-01-05T01:00:27.495Z,51.45
2019-01-05T01:05:47.755Z,42.20
2019-01-05T01:11:12.209Z,43.40
2019-01-05T01:16:32.585Z,37.03
2019-01-05T01:21:46.007Z,32.00
2019-01-05T01:27:19.701Z,26.82
2019-01-05T01:32:41.338Z,23.35
2019-01-05T01:38:39.019Z,25.60
2019-01-05T01:44:10.014Z,22.60
2019-01-05T01:49:30.265Z,25.27
2019-01-05T01:54:51.187Z,24.07
2019-01-05T02:00:20.530Z,25.70
2019-01-05T02:05:53.009Z,28.67
2019-01-05T02:11:27.688Z,26.17
2019-01-05T02:17:12.513Z,34.73
2019-01-05T02:23:02.577Z,31.52
2019-01-05T02:29:01.308Z,30.57
2019-01-05T02:35:24.907Z,37.50
2019-01-05T02:41:16.038Z,36.15
2019-01-05T02:47:36.679Z,35.95
2019-01-05T02:53:34.631Z,32.67
2019-01-05T02:59:50.377Z,31.50
2019-01-05T03:06:12.571Z,30.12
2019-01-05T03:12:26.180Z,33.05
2019-01-05T03:18:32.750Z,31.87
2019-01-05T03:24:40.133Z,34.98
2019-01-05T03:30:56.491Z,31.97
2019-01-05T03:36:46.523Z,28.45
2019-01-05T03:42:50.944Z,31.05
2019-01-05T03:48:59.643Z,29.85
2019-01-05T03:54:56.544Z,28.87
2019-01-05T04:01:06.185Z,32.98
2019-01-05T04:06:56.704Z,31.68
2019-01-05T04:13:39.428Z,27.93
2019-01-05T04:19:36.778Z,25.62
2019-01-05T04:25:58.836Z,31.40
2019-01-05T04:31:56.059Z,31.95
2019-01-05T04:37:47.850Z,29.90
2019-01-05T04:43:50.043Z,29.10
2019-01-05T04:50:19.811Z,29.85
2019-01-05T04:56:29.047Z,27.82
2019-01-05T05:02:43.972Z,25.23
2019-01-05T05:08:41.699Z,24.45
2019-01-05T05:14:53.516Z,22.98
2019-01-05T05:20:57.398Z,19.67
2019-01-05T05:27:15.166Z,19.05
2019-01-05T05:33:14.592Z,16.87
2019-01-05T05:39:13.812Z,16.00
2019-01-05T05:45:28.497Z,18.85
2019-01-05T05:52:08.335Z,16.25
2019-01-05T05:58:16.509Z,16.17
2019-01-05T06:04:14.133Z,15.72
2019-01-05T06:10:14.114Z,16.10
2019-01-05T06:16:16.021Z,17.50
2019-01-05T06:21:56.604Z,16.42
2019-01-05T06:28:13.979Z,17.48
2019-01-05T06:34:18.763Z,16.17
2019-01-05T06:40:19.672Z,20.27
2019-01-05T06:46:28.893Z,13.10
2019-01-05T06:52:41.500Z,16.00
2019-01-05T06:58:43.394Z,14.95
2019-01-05T07:05:06.734Z,13.25
2019-01-05T07:10:56.565Z,16.37
2019-01-05T07:16:58.095Z,13.70
2019-01-05T07:23:06.496Z,15.93
2019-01-05T07:29:06.149Z,14.38
2019-01-05T07:34:48.590Z,15.25
2019-01-05T07:40:41.242Z,18.07
2019-01-05T07:46:47.232Z,16.55
2019-01-05T07:52:47.019Z,16.57
2019-01-05T07:58:42.783Z,14.95
2019-01-05T08:04:39.959Z,14.50
2019-01-05T08:10:30.375Z,14.10
2019-01-05T08:16:47.824Z,16.05
2019-01-05T08:22:56.342Z,14.93
2019-01-05T08:29:03.006Z,14.23
2019-01-05T08:35:19.259Z,15.38
2019-01-05T08:41:39.525Z,13.08
2019-01-05T08:47:41.203Z,12.82
2019-01-05T08:53:50.985Z,9.00
2019-01-05T09:00:03.587Z,10.15
2019-01-05T09:06:26.484Z,7.90
2019-01-05T09:12:09.524Z,5.95
2019-01-05T09:18:12.041Z,3.40
2019-01-05T09:24:13.488Z,2.67
2019-01-05T09:30:04.274Z,2.80
2019-01-05T09:36:10.673Z,2.67
2019-01-05T09:42:07.484Z,2.60
2019-01-05T09:48:11.564Z,3.33
2019-01-05T09:54:33.484Z,3.02
2019-01-05T10:00:50.705Z,3.35
2019-01-05T10:06:56.548Z,4.03
2019-01-05T10:12:51.252Z,4.28
2019-01-05T10:19:05.623Z,4.33
2019-01-05T10:25:02.130Z,3.25
2019-01-05T10:30:58.859Z,3.37
2019-01-05T10:37:10.770Z,2.02
2019-01-05T10:43:07.775Z,2.20
2019-01-05T10:49:11.420Z,1.82
2019-01-05T10:55:23.468Z,2.08
2019-01-05T11:01:35.042Z,1.80
2019-01-05T11:07:24.690Z,1.77
2019-01-05T11:13:27.039Z,2.02
2019-01-05T11:19:45.416Z,1.80
2019-01-05T11:26:07.830Z,1.70
2019-01-05T11:32:10.010Z,1.90
2019-01-05T11:38:17.247Z,1.52
2019-01-05T11:44:39.121Z,1.57
2019-01-05T11:51:02.418Z,1.70
2019-01-05T11:57:12.643Z,1.72
2019-01-05T12:03:10.668Z,2.10
2019-01-05T12:09:11.643Z,3.02
2019-01-05T12:15:26.414Z,1.80
2019-01-05T12:21:30.441Z,1.85
2019-01-05T12:27:37.490Z,1.90
2019-01-05T12:34:04.298Z,2.35
2019-01-05T12:40:05.931Z,2.15
2019-01-05T12:46:06.690Z,1.85
2019-01-05T12:52:13.103Z,1.50
2019-01-05T12:58:10.429Z,5.58
2019-01-05T13:04:07.425Z,1.87
2019-01-05T13:10:18.733Z,1.85
2019-01-05T13:16:54.262Z,2.27
2019-01-05T13:22:57.117Z,2.25
2019-01-05T13:29:20.675Z,3.30
2019-01-05T13:35:37.906Z,1.72
2019-01-05T13:41:49.986Z,2.22
2019-01-05T13:48:08.918Z,2.00
2019-01-05T13:54:09.179Z,3.33
2019-01-05T13:59:51.010Z,2.05
2019-01-05T14:05:41.115Z,1.70
2019-01-05T14:11:29.652Z,3.80
2019-01-05T14:17:38.132Z,1.95
2019-01-05T14:23:42.227Z,2.02
2019-01-05T14:29:04.644Z,1.70
2019-01-05T14:41:11.882Z,3.12
2019-01-05T14:46:52.473Z,1.87
2019-01-05T14:58:37.948Z,1.70
2019-01-05T15:04:41.193Z,2.00
2019-01-05T15:10:16.108Z,3.30
2019-01-05T15:16:02.488Z,2.17
2019-01-05T15:21:24.551Z,1.80
2019-01-05T15:27:24.320Z,2.10
2019-01-05T15:32:49.323Z,2.37
2019-01-05T15:38:26.778Z,1.87
2019-01-05T16:02:01.991Z,3.92
2019-01-05T16:07:22.726Z,3.00
2019-01-05T16:12:43.546Z,2.98
2019-01-05T16:18:08.262Z,3.27
2019-01-05T16:23:28.587Z,3.25
2019-01-05T16:28:52.938Z,9.85
2019-01-05T16:34:14.696Z,3.60
2019-01-05T16:39:36.336Z,3.80
2019-01-05T16:44:57.984Z,3.47
2019-01-05T16:50:22.323Z,3.47
2019-01-05T16:55:56.046Z,5.25
2019-01-05T17:01:22.629Z,3.72
2019-01-05T17:06:38.805Z,3.92
2019-01-05T17:12:09.496Z,6.25
2019-01-05T17:17:28.736Z,4.83
2019-01-05T17:22:49.143Z,5.85
2019-01-05T17:28:25.791Z,3.95
2019-01-05T17:33:55.253Z,4.53
2019-01-05T17:39:22.867Z,5.00
2019-01-05T17:44:50.139Z,5.37
2019-01-05T17:50:09.202Z,4.83
2019-01-05T17:55:30.774Z,5.70
2019-01-05T18:01:01.398Z,4.03
2019-01-05T18:06:29.241Z,6.40
2019-01-05T18:12:06.433Z,3.87
2019-01-05T18:17:28.719Z,4.37
2019-01-05T18:23:05.402Z,5.12
2019-01-05T18:28:41.884Z,5.08
2019-01-05T18:34:06.782Z,4.67
2019-01-05T18:39:38.106Z,4.37
2019-01-05T18:45:24.002Z,3.55
2019-01-05T18:50:48.991Z,3.83
2019-01-05T18:56:10.207Z,4.75
2019-01-05T19:01:34.904Z,4.17
2019-01-05T19:06:56.570Z,4.55
2019-01-05T19:12:16.896Z,5.05
2019-01-05T19:17:32.672Z,4.00
2019-01-05T19:22:54.564Z,4.70
2019-01-05T19:28:22.399Z,2.70
2019-01-05T19:33:53.276Z,4.75
2019-01-05T19:39:17.909Z,4.08
2019-01-05T19:44:40.015Z,3.72
2019-01-05T19:50:00.131Z,4.65
2019-01-05T19:55:20.263Z,4.15
2019-01-05T20:00:50.814Z,2.98
2019-01-05T20:06:18.351Z,3.37
2019-01-05T20:11:40.201Z,3.58
2019-01-05T20:17:12.530Z,2.92
2019-01-05T20:22:29.270Z,3.75
2019-01-05T20:27:49.639Z,3.42
2019-01-05T20:33:23.134Z,3.67
2019-01-05T20:39:03.096Z,4.95
2019-01-05T20:44:23.349Z,4.12
2019-01-05T20:50:11.032Z,3.72
